Time;durP1;ratioP1;P1;durP2;ratioP2;P2;SDS_P1;SDS_P2;PMS_P1;PMS_P2;Temp;Humidity;BMP_temperature;BMP_pressure;BME280_temperature;BME280_humidity;BME280_pressure;Samples;Min_cycle;Max_cycle;Signal;HPM_P1;HPM_P2
2024/01/14 00:01:22;;;;;;;108.07;35.47;;;;;;;;;;6246424;22;20348;-78
2024/01/14 00:03:49;;;;;;;99.40;36.08;;;;;;;;;;6246798;22;20306;-77
2024/01/14 00:06:17;;;;;;;101.03;34.25;;;;;;;;;;6246484;22;20071;-78
2024/01/14 00:08:44;;;;;;;98.90;34.47;;;;;;;;;;6246906;22;20016;-77
2024/01/14 00:11:10;;;;;;;90.45;32.83;;;;;;;;;;6246035;22;20016;-77
2024/01/14 00:13:37;;;;;;;103.03;34.05;;;;;;;;;;6246903;22;20020;-77
2024/01/14 00:16:04;;;;;;;93.47;33.85;;;;;;;;;;6244692;22;20020;-77
2024/01/14 00:18:31;;;;;;;97.63;34.63;;;;;;;;;;6245215;23;20070;-78
2024/01/14 00:20:58;;;;;;;96.30;34.50;;;;;;;;;;6246473;22;20016;-77
2024/01/14 00:23:25;;;;;;;109.15;37.05;;;;;;;;;;6246318;22;20028;-79
2024/01/14 00:25:51;;;;;;;108.45;39.22;;;;;;;;;;6246712;22;20016;-77
2024/01/14 00:28:19;;;;;;;106.43;36.95;;;;;;;;;;6245840;22;20012;-77
2024/01/14 00:30:46;;;;;;;97.07;35.35;;;;;;;;;;6246844;22;20016;-77
2024/01/14 00:33:13;;;;;;;103.13;37.25;;;;;;;;;;6246039;22;20016;-78
2024/01/14 00:35:40;;;;;;;105.13;36.72;;;;;;;;;;6246484;22;20445;-77
2024/01/14 00:38:11;;;;;;;117.78;38.88;;;;;;;;;;6246362;22;20019;-78
2024/01/14 00:40:37;;;;;;;119.70;38.63;;;;;;;;;;6246715;22;20455;-78
2024/01/14 00:43:04;;;;;;;112.63;39.10;;;;;;;;;;6246568;22;20023;-77
2024/01/14 00:45:31;;;;;;;106.43;38.38;;;;;;;;;;6246806;22;20020;-77
2024/01/14 00:47:58;;;;;;;109.82;38.90;;;;;;;;;;6246928;22;20337;-76
2024/01/14 00:50:25;;;;;;;107.32;37.13;;;;;;;;;;6270125;22;20024;-77
2024/01/14 00:52:52;;;;;;;106.10;37.35;;;;;;;;;;6245527;23;20016;-78
2024/01/14 00:55:18;;;;;;;109.55;38.05;;;;;;;;;;6246571;22;20028;-77
2024/01/14 00:57:47;;;;;;;98.85;36.10;;;;;;;;;;6247882;22;20324;-77
2024/01/14 01:00:14;;;;;;;103.78;37.30;;;;;;;;;;6248457;22;20091;-78
2024/01/14 01:02:40;;;;;;;98.15;36.00;;;;;;;;;;6249766;22;20020;-77
2024/01/14 01:05:08;;;;;;;100.72;36.65;;;;;;;;;;6248601;22;20437;-76
2024/01/14 01:07:35;;;;;;;99.88;36.78;;;;;;;;;;6249055;22;20019;-77
2024/01/14 01:10:03;;;;;;;100.10;33.95;;;;;;;;;;6246325;22;20012;-77
2024/01/14 01:12:29;;;;;;;95.55;35.28;;;;;;;;;;6245462;22;20032;-78
2024/01/14 01:14:56;;;;;;;103.20;34.78;;;;;;;;;;6246183;22;20352;-77
2024/01/14 01:17:23;;;;;;;101.25;36.05;;;;;;;;;;6245553;22;20016;-78
2024/01/14 01:19:50;;;;;;;92.95;33.55;;;;;;;;;;6246111;22;20016;-77
2024/01/14 01:22:17;;;;;;;93.65;33.63;;;;;;;;;;6245257;22;20019;-77
2024/01/14 01:24:44;;;;;;;91.35;32.63;;;;;;;;;;6245827;22;20020;-76
2024/01/14 01:27:11;;;;;;;99.00;35.35;;;;;;;;;;6245463;22;20022;-78
2024/01/14 01:29:38;;;;;;;92.10;34.08;;;;;;;;;;6245990;22;20061;-77
2024/01/14 01:32:05;;;;;;;88.97;34.00;;;;;;;;;;6245488;22;20012;-77
2024/01/14 01:34:34;;;;;;;93.13;33.28;;;;;;;;;;6245591;22;20510;-77
2024/01/14 01:37:02;;;;;;;99.78;34.05;;;;;;;;;;6245797;22;20512;-77
2024/01/14 01:39:29;;;;;;;91.00;35.40;;;;;;;;;;6245620;22;20361;-77
2024/01/14 01:41:56;;;;;;;98.05;33.40;;;;;;;;;;6245968;22;20012;-76
2024/01/14 01:44:25;;;;;;;91.03;32.67;;;;;;;;;;6243513;22;20410;-77
2024/01/14 01:46:52;;;;;;;99.85;35.38;;;;;;;;;;6246151;22;20022;-76
2024/01/14 01:49:19;;;;;;;90.28;32.45;;;;;;;;;;6243624;22;20026;-77
2024/01/14 01:51:48;;;;;;;93.32;34.65;;;;;;;;;;6245585;22;20023;-77
2024/01/14 01:54:18;;;;;;;93.82;33.65;;;;;;;;;;6245199;22;20441;-77
2024/01/14 01:56:45;;;;;;;94.93;33.70;;;;;;;;;;6246057;22;20039;-77
2024/01/14 01:59:13;;;;;;;90.28;32.53;;;;;;;;;;6245177;22;20048;-77
2024/01/14 02:01:39;;;;;;;99.38;33.47;;;;;;;;;;6269306;22;20067;-76
2024/01/14 02:04:07;;;;;;;91.63;34.15;;;;;;;;;;6245386;22;20451;-77
2024/01/14 02:06:37;;;;;;;98.65;33.75;;;;;;;;;;6245840;22;20121;-76
2024/01/14 02:09:07;;;;;;;96.50;33.92;;;;;;;;;;6245230;22;20020;-77
2024/01/14 02:11:35;;;;;;;91.57;33.33;;;;;;;;;;6245983;22;20086;-77
2024/01/14 02:14:05;;;;;;;91.65;33.05;;;;;;;;;;6245526;22;20019;-78
2024/01/14 02:16:32;;;;;;;90.75;32.28;;;;;;;;;;6245523;22;20036;-77
2024/01/14 02:18:59;;;;;;;90.15;32.53;;;;;;;;;;6245635;22;20016;-77
2024/01/14 02:21:33;;;;;;;86.13;31.30;;;;;;;;;;6245045;22;20017;-77
2024/01/14 02:24:29;;;;;;;90.22;32.83;;;;;;;;;;6245568;22;20012;-78
2024/01/14 02:26:56;;;;;;;99.60;32.58;;;;;;;;;;6245049;22;20016;-76
2024/01/14 02:29:24;;;;;;;90.50;31.60;;;;;;;;;;6245201;22;20028;-78
2024/01/14 02:31:50;;;;;;;93.13;34.58;;;;;;;;;;6245973;22;20425;-78
2024/01/14 02:34:17;;;;;;;88.72;32.33;;;;;;;;;;6245107;22;20013;-77
2024/01/14 02:36:44;;;;;;;84.03;30.98;;;;;;;;;;6245848;22;20086;-79
2024/01/14 02:39:11;;;;;;;87.60;31.92;;;;;;;;;;6245560;22;20012;-79
2024/01/14 02:41:38;;;;;;;91.40;32.17;;;;;;;;;;6245543;22;20012;-78
2024/01/14 02:44:05;;;;;;;90.53;32.60;;;;;;;;;;6246741;22;20016;-76
2024/01/14 02:46:31;;;;;;;90.85;32.75;;;;;;;;;;6247278;22;20016;-77
2024/01/14 02:48:58;;;;;;;86.40;32.50;;;;;;;;;;6247637;22;20013;-78
2024/01/14 02:51:25;;;;;;;90.70;33.78;;;;;;;;;;6247170;22;20020;-77
2024/01/14 02:53:52;;;;;;;83.43;31.88;;;;;;;;;;6245939;22;20024;-78
2024/01/14 02:56:19;;;;;;;88.38;30.35;;;;;;;;;;6245039;22;20039;-77
2024/01/14 02:58:45;;;;;;;89.32;31.77;;;;;;;;;;6245541;22;20023;-77
2024/01/14 03:01:12;;;;;;;87.18;32.80;;;;;;;;;;6244764;22;20062;-77
2024/01/14 03:03:39;;;;;;;88.15;32.28;;;;;;;;;;6247578;22;20449;-77
2024/01/14 03:06:07;;;;;;;89.78;32.53;;;;;;;;;;6270905;22;20016;-76
2024/01/14 03:08:34;;;;;;;86.82;31.48;;;;;;;;;;6247498;22;20020;-77
2024/01/14 03:11:01;;;;;;;89.45;32.13;;;;;;;;;;6247104;22;20032;-77
2024/01/14 03:13:28;;;;;;;89.15;32.30;;;;;;;;;;6246944;22;20024;-77
2024/01/14 03:15:55;;;;;;;92.40;33.13;;;;;;;;;;6247132;22;20072;-76
2024/01/14 03:18:21;;;;;;;91.38;31.55;;;;;;;;;;6247717;22;20429;-78
2024/01/14 03:20:48;;;;;;;89.40;32.65;;;;;;;;;;6247262;22;20051;-77
2024/01/14 03:23:15;;;;;;;88.35;32.53;;;;;;;;;;6246632;22;20078;-77
2024/01/14 03:25:42;;;;;;;84.65;31.90;;;;;;;;;;6247234;22;20022;-79
2024/01/14 03:28:08;;;;;;;85.18;31.40;;;;;;;;;;6246974;22;20023;-77
2024/01/14 03:30:35;;;;;;;82.95;31.77;;;;;;;;;;6247140;22;20038;-76
2024/01/14 03:33:02;;;;;;;91.60;33.70;;;;;;;;;;6247278;22;20020;-78
2024/01/14 03:35:29;;;;;;;87.40;32.75;;;;;;;;;;6246837;22;20020;-78
2024/01/14 03:37:56;;;;;;;91.38;31.77;;;;;;;;;;6247245;22;20337;-78
2024/01/14 03:40:23;;;;;;;88.53;32.15;;;;;;;;;;6246404;22;20475;-77
2024/01/14 03:42:49;;;;;;;88.78;32.58;;;;;;;;;;6247282;22;20023;-77
2024/01/14 03:45:16;;;;;;;83.38;30.25;;;;;;;;;;6270467;22;20506;-76
2024/01/14 03:47:43;;;;;;;93.70;32.50;;;;;;;;;;6247056;22;20022;-76
2024/01/14 03:50:10;;;;;;;89.88;31.48;;;;;;;;;;6246540;22;20385;-77
2024/01/14 03:52:37;;;;;;;97.93;33.17;;;;;;;;;;6247775;22;20345;-76
2024/01/14 03:55:04;;;;;;;85.93;30.33;;;;;;;;;;6249732;22;20386;-76
2024/01/14 03:57:31;;;;;;;83.45;30.67;;;;;;;;;;6249186;22;20038;-76
2024/01/14 03:59:58;;;;;;;95.05;32.30;;;;;;;;;;6249172;22;20031;-77
2024/01/14 04:02:25;;;;;;;84.10;31.30;;;;;;;;;;6246364;22;20020;-77
2024/01/14 04:04:52;;;;;;;93.55;32.80;;;;;;;;;;6246868;22;20023;-77
2024/01/14 04:07:19;;;;;;;84.07;31.35;;;;;;;;;;6246358;22;20051;-77
2024/01/14 04:09:46;;;;;;;88.97;32.92;;;;;;;;;;6246759;22;20016;-78
2024/01/14 04:12:13;;;;;;;81.82;31.00;;;;;;;;;;6245915;22;20016;-78
2024/01/14 04:14:39;;;;;;;94.35;34.90;;;;;;;;;;6247022;22;20078;-77
2024/01/14 04:17:06;;;;;;;81.07;31.83;;;;;;;;;;6246423;22;20016;-77
2024/01/14 04:19:33;;;;;;;85.82;30.48;;;;;;;;;;6247192;22;20020;-78
2024/01/14 04:22:00;;;;;;;84.72;32.08;;;;;;;;;;6247475;22;20318;-78
2024/01/14 04:24:26;;;;;;;89.40;31.92;;;;;;;;;;6246499;22;20091;-78
2024/01/14 04:26:53;;;;;;;87.95;31.30;;;;;;;;;;6247791;22;20336;-78
2024/01/14 04:29:20;;;;;;;85.90;30.75;;;;;;;;;;6248314;22;20091;-78
2024/01/14 04:31:47;;;;;;;93.53;31.67;;;;;;;;;;6250534;22;20026;-78
2024/01/14 04:34:13;;;;;;;80.22;30.05;;;;;;;;;;6249332;22;20068;-78
2024/01/14 04:36:40;;;;;;;77.75;30.30;;;;;;;;;;6250294;22;20013;-76
2024/01/14 04:39:07;;;;;;;78.70;30.30;;;;;;;;;;6248581;22;20429;-76
2024/01/14 04:41:34;;;;;;;74.82;30.50;;;;;;;;;;6246687;22;20023;-78
2024/01/14 04:44:02;;;;;;;85.80;31.42;;;;;;;;;;6246614;22;20082;-77
2024/01/14 04:46:28;;;;;;;79.53;30.50;;;;;;;;;;6245829;22;20095;-76
2024/01/14 04:48:55;;;;;;;77.78;30.15;;;;;;;;;;6246425;22;20012;-77
2024/01/14 04:51:22;;;;;;;90.60;31.38;;;;;;;;;;6245758;22;20019;-78
2024/01/14 04:53:49;;;;;;;82.57;30.55;;;;;;;;;;6246113;22;20024;-77
2024/01/14 04:56:16;;;;;;;82.65;31.02;;;;;;;;;;6245826;22;20020;-77
2024/01/14 04:58:43;;;;;;;79.15;31.33;;;;;;;;;;6246543;22;20679;-78
2024/01/14 05:01:09;;;;;;;87.13;31.83;;;;;;;;;;6245715;22;20091;-77
2024/01/14 05:03:36;;;;;;;81.70;30.60;;;;;;;;;;6246363;22;20047;-77
2024/01/14 05:06:04;;;;;;;73.05;29.73;;;;;;;;;;6246311;22;20024;-79
2024/01/14 05:08:32;;;;;;;76.85;29.30;;;;;;;;;;6246027;22;20322;-77
2024/01/14 05:10:58;;;;;;;82.13;30.23;;;;;;;;;;6246056;22;20372;-78
2024/01/14 05:13:25;;;;;;;80.78;30.75;;;;;;;;;;6245593;22;20016;-78
2024/01/14 05:15:52;;;;;;;79.03;30.17;;;;;;;;;;6245920;22;20023;-78
2024/01/14 05:18:19;;;;;;;71.90;29.27;;;;;;;;;;6245658;22;20016;-77
2024/01/14 05:20:45;;;;;;;83.15;30.17;;;;;;;;;;6246323;22;20016;-77
2024/01/14 05:23:12;;;;;;;76.03;29.58;;;;;;;;;;6245739;22;20016;-77
2024/01/14 05:25:39;;;;;;;80.03;29.83;;;;;;;;;;6245606;22;20331;-76
2024/01/14 05:28:05;;;;;;;73.80;29.77;;;;;;;;;;6245720;22;20032;-77
2024/01/14 05:30:32;;;;;;;78.57;30.08;;;;;;;;;;6245857;22;20016;-77
2024/01/14 05:32:59;;;;;;;77.32;29.30;;;;;;;;;;6245889;22;20441;-76
2024/01/14 05:35:26;;;;;;;78.53;29.63;;;;;;;;;;6245315;22;20024;-76
2024/01/14 05:37:53;;;;;;;73.43;29.35;;;;;;;;;;6245678;22;20020;-78
2024/01/14 05:40:20;;;;;;;80.90;29.30;;;;;;;;;;6245467;22;20012;-78
2024/01/14 05:42:46;;;;;;;75.40;29.50;;;;;;;;;;6245985;22;20024;-77
2024/01/14 05:45:13;;;;;;;82.43;32.20;;;;;;;;;;6245294;22;20086;-77
2024/01/14 05:47:40;;;;;;;82.28;30.48;;;;;;;;;;6245905;22;20436;-77
2024/01/14 05:50:07;;;;;;;84.07;30.70;;;;;;;;;;6245692;22;20012;-79
2024/01/14 05:52:35;;;;;;;77.88;30.25;;;;;;;;;;6246257;22;20099;-77
2024/01/14 05:55:02;;;;;;;80.72;31.30;;;;;;;;;;6245880;22;20016;-78
2024/01/14 05:57:30;;;;;;;85.75;31.95;;;;;;;;;;6246037;22;20441;-78
2024/01/14 05:59:57;;;;;;;93.77;31.70;;;;;;;;;;6246717;22;20046;-78
2024/01/14 06:02:24;;;;;;;86.40;30.85;;;;;;;;;;6245854;22;20031;-78
2024/01/14 06:04:51;;;;;;;78.82;31.17;;;;;;;;;;6246107;22;20020;-79
2024/01/14 06:07:18;;;;;;;82.15;30.17;;;;;;;;;;6245629;22;20018;-78
2024/01/14 06:09:46;;;;;;;87.80;31.43;;;;;;;;;;6246695;22;20024;-77
2024/01/14 06:12:14;;;;;;;77.88;29.92;;;;;;;;;;6248366;22;20027;-78
2024/01/14 06:14:40;;;;;;;82.65;31.00;;;;;;;;;;6246656;22;20070;-77
2024/01/14 06:17:08;;;;;;;81.65;29.73;;;;;;;;;;6247588;22;20016;-77
2024/01/14 06:19:35;;;;;;;78.68;30.55;;;;;;;;;;6248064;22;20321;-77
2024/01/14 06:22:03;;;;;;;86.40;31.00;;;;;;;;;;6245930;22;20012;-78
2024/01/14 06:24:29;;;;;;;84.20;31.38;;;;;;;;;;6245257;22;20333;-76
2024/01/14 06:26:56;;;;;;;82.55;31.40;;;;;;;;;;6245572;22;20016;-77
2024/01/14 06:29:24;;;;;;;89.53;32.88;;;;;;;;;;6245012;22;20023;-77
2024/01/14 06:31:51;;;;;;;87.75;32.30;;;;;;;;;;6245512;22;20016;-77
2024/01/14 06:34:17;;;;;;;82.13;32.25;;;;;;;;;;6244847;22;20019;-77
2024/01/14 06:36:44;;;;;;;85.43;30.88;;;;;;;;;;6246840;22;20503;-78
2024/01/14 06:39:11;;;;;;;93.45;33.30;;;;;;;;;;6247014;22;20035;-77
2024/01/14 06:41:38;;;;;;;86.07;32.67;;;;;;;;;;6247564;22;20016;-77
2024/01/14 06:44:04;;;;;;;80.75;31.58;;;;;;;;;;6247148;22;20016;-77
2024/01/14 06:46:31;;;;;;;85.68;32.10;;;;;;;;;;6271009;22;20017;-78
2024/01/14 06:48:58;;;;;;;84.07;31.33;;;;;;;;;;6271220;22;20621;-77
2024/01/14 06:51:25;;;;;;;78.45;30.80;;;;;;;;;;6246930;22;20069;-78
2024/01/14 06:53:52;;;;;;;90.88;31.08;;;;;;;;;;6247515;22;20023;-78
2024/01/14 06:56:19;;;;;;;85.30;30.83;;;;;;;;;;6246800;22;20012;-77
2024/01/14 06:58:49;;;;;;;85.40;31.17;;;;;;;;;;6247490;22;20047;-78
2024/01/14 07:01:16;;;;;;;81.75;31.20;;;;;;;;;;6246941;22;20020;-78
2024/01/14 07:03:43;;;;;;;80.35;30.48;;;;;;;;;;6247350;22;20053;-77
2024/01/14 07:06:10;;;;;;;86.82;32.88;;;;;;;;;;6246679;22;20299;-77
2024/01/14 07:08:37;;;;;;;87.15;32.08;;;;;;;;;;6247339;22;20376;-77
2024/01/14 07:11:05;;;;;;;85.75;30.60;;;;;;;;;;6247492;22;20022;-77
2024/01/14 07:13:32;;;;;;;88.38;31.60;;;;;;;;;;6247215;22;20016;-77
2024/01/14 07:15:59;;;;;;;80.00;30.98;;;;;;;;;;6247318;22;20016;-76
2024/01/14 07:18:26;;;;;;;82.55;31.40;;;;;;;;;;6246708;22;20313;-77
2024/01/14 07:20:53;;;;;;;81.60;31.77;;;;;;;;;;6247298;22;20035;-77
2024/01/14 07:23:19;;;;;;;82.25;30.63;;;;;;;;;;6245128;22;20020;-78
2024/01/14 07:26:17;;;;;;;82.90;32.05;;;;;;;;;;6246704;22;20108;-77
2024/01/14 07:28:51;;;;;;;80.07;32.30;;;;;;;;;;6247314;22;20056;-77
2024/01/14 07:31:20;;;;;;;;;;;;;;;;;;6270820;22;20023;-78
2024/01/14 07:33:50;;;;;;;88.57;32.20;;;;;;;;;;6247167;22;19916;-77
2024/01/14 07:36:17;;;;;;;;;;;;;;;;;;6247270;22;20082;-77
2024/01/14 07:38:45;;;;;;;89.45;31.50;;;;;;;;;;6247154;22;19915;-76
2024/01/14 07:41:13;;;;;;;82.82;30.73;;;;;;;;;;6246495;22;20012;-77
2024/01/14 07:43:40;;;;;;;96.20;33.00;;;;;;;;;;6247325;22;20070;-78
2024/01/14 07:46:08;;;;;;;85.72;31.75;;;;;;;;;;6246978;22;20021;-75
2024/01/14 07:48:35;;;;;;;86.40;31.48;;;;;;;;;;6247299;22;20012;-78
2024/01/14 07:51:03;;;;;;;91.30;33.15;;;;;;;;;;6248135;22;20083;-77
2024/01/14 07:53:30;;;;;;;93.75;33.78;;;;;;;;;;6249525;22;20074;-77
2024/01/14 07:55:57;;;;;;;90.63;31.92;;;;;;;;;;6250252;22;20376;-78
2024/01/14 07:58:24;;;;;;;86.18;31.38;;;;;;;;;;6249316;22;20049;-78
2024/01/14 08:00:52;;;;;;;87.93;31.83;;;;;;;;;;6250334;22;20020;-76
2024/01/14 08:03:29;;;;;;;90.68;33.28;;;;;;;;;;6246938;22;20099;-77
2024/01/14 08:05:56;;;;;;;86.28;32.03;;;;;;;;;;6246781;22;20371;-78
2024/01/14 08:08:23;;;;;;;90.47;33.65;;;;;;;;;;6244934;22;20215;-78
2024/01/14 08:10:51;;;;;;;90.47;33.35;;;;;;;;;;6246858;22;20020;-77
2024/01/14 08:13:19;;;;;;;94.28;34.30;;;;;;;;;;6246283;22;20377;-78
2024/01/14 08:15:46;;;;;;;86.70;32.28;;;;;;;;;;6246693;22;20019;-78
2024/01/14 08:18:27;;;;;;;85.80;33.83;;;;;;;;;;6246141;22;20019;-78
2024/01/14 08:20:54;;;;;;;90.07;33.80;;;;;;;;;;6246802;22;20016;-77
2024/01/14 08:23:21;;;;;;;77.55;32.67;;;;;;;;;;6246127;22;20107;-77
2024/01/14 08:25:48;;;;;;;99.25;34.92;;;;;;;;;;6246693;22;20023;-76
2024/01/14 08:28:14;;;;;;;87.75;33.03;;;;;;;;;;6246020;22;20023;-77
2024/01/14 08:30:41;;;;;;;91.32;35.15;;;;;;;;;;6246739;22;20035;-77
2024/01/14 08:33:08;;;;;;;94.32;34.83;;;;;;;;;;6246103;22;20083;-77
2024/01/14 08:35:35;;;;;;;91.47;34.58;;;;;;;;;;6246498;22;20040;-77
2024/01/14 08:38:02;;;;;;;90.60;34.55;;;;;;;;;;6246907;22;20016;-77
2024/01/14 08:40:29;;;;;;;85.05;33.50;;;;;;;;;;6246159;22;20020;-78
2024/01/14 08:42:55;;;;;;;94.22;34.63;;;;;;;;;;6246511;22;20022;-78
2024/01/14 08:45:22;;;;;;;95.57;34.78;;;;;;;;;;6244219;22;20020;-78
2024/01/14 08:47:49;;;;;;;90.53;33.78;;;;;;;;;;6246361;22;20023;-76
2024/01/14 08:50:18;;;;;;;88.38;32.22;;;;;;;;;;6245956;22;20441;-77
2024/01/14 08:52:45;;;;;;;87.78;34.00;;;;;;;;;;6246542;22;20040;-78
2024/01/14 08:55:13;;;;;;;90.15;33.75;;;;;;;;;;6246899;22;20393;-78
2024/01/14 08:57:40;;;;;;;95.47;34.88;;;;;;;;;;6249464;22;20012;-77
2024/01/14 09:00:11;;;;;;;96.65;34.53;;;;;;;;;;6248307;22;20044;-77
2024/01/14 09:02:39;;;;;;;93.20;33.42;;;;;;;;;;6247123;22;20019;-78
2024/01/14 09:05:06;;;;;;;89.05;33.17;;;;;;;;;;6245633;22;20429;-77
2024/01/14 09:07:36;;;;;;;96.80;34.25;;;;;;;;;;6246458;22;20349;-78
2024/01/14 09:10:03;;;;;;;99.25;36.17;;;;;;;;;;6246355;22;20034;-77
2024/01/14 09:12:30;;;;;;;97.68;35.65;;;;;;;;;;6269427;22;20027;-77
2024/01/14 09:14:57;;;;;;;91.93;35.20;;;;;;;;;;6246353;22;20406;-78
2024/01/14 09:17:23;;;;;;;89.15;33.88;;;;;;;;;;6245797;22;20099;-78
2024/01/14 09:19:50;;;;;;;88.82;33.28;;;;;;;;;;6246140;22;20016;-78
2024/01/14 09:22:18;;;;;;;91.82;35.22;;;;;;;;;;6245350;22;20039;-76
2024/01/14 09:24:45;;;;;;;92.25;34.40;;;;;;;;;;6246130;22;20016;-77
2024/01/14 09:27:17;;;;;;;88.55;33.85;;;;;;;;;;6245557;22;20016;-78
2024/01/14 09:29:44;;;;;;;94.18;35.35;;;;;;;;;;6246273;22;20016;-78
2024/01/14 09:32:11;;;;;;;96.15;35.90;;;;;;;;;;6245847;22;20012;-77
2024/01/14 09:34:39;;;;;;;98.25;35.30;;;;;;;;;;6246377;22;20035;-76
2024/01/14 09:37:06;;;;;;;99.32;36.92;;;;;;;;;;6245889;22;20028;-78
2024/01/14 09:39:33;;;;;;;99.97;35.80;;;;;;;;;;6245944;22;20020;-76
2024/01/14 09:42:11;;;;;;;95.35;35.42;;;;;;;;;;6245947;22;20016;-77
2024/01/14 09:44:38;;;;;;;97.85;35.75;;;;;;;;;;6245364;22;20394;-77
2024/01/14 09:47:08;;;;;;;109.22;37.00;;;;;;;;;;6245389;22;20023;-77
2024/01/14 09:49:36;;;;;;;93.55;35.85;;;;;;;;;;6246106;22;20020;-77
2024/01/14 09:52:04;;;;;;;103.03;35.95;;;;;;;;;;6245831;22;20023;-77
2024/01/14 09:54:32;;;;;;;99.05;37.05;;;;;;;;;;6243940;23;20437;-77
2024/01/14 09:57:05;;;;;;;107.13;36.17;;;;;;;;;;6245498;22;20059;-77
2024/01/14 09:59:34;;;;;;;104.85;36.75;;;;;;;;;;6245392;22;20069;-77
2024/01/14 10:02:03;;;;;;;106.80;36.35;;;;;;;;;;6245750;22;20020;-76
2024/01/14 10:04:30;;;;;;;113.55;39.15;;;;;;;;;;6245348;22;20380;-77
2024/01/14 10:06:58;;;;;;;109.10;38.97;;;;;;;;;;6245792;22;20016;-76
2024/01/14 10:09:25;;;;;;;116.70;38.60;;;;;;;;;;6245214;22;20016;-77
2024/01/14 10:11:52;;;;;;;111.57;36.85;;;;;;;;;;6243681;23;20514;-76
2024/01/14 10:14:24;;;;;;;119.05;40.03;;;;;;;;;;6245114;22;20091;-76
2024/01/14 10:16:51;;;;;;;108.38;37.78;;;;;;;;;;6245578;22;20012;-78
2024/01/14 10:19:22;;;;;;;111.10;38.83;;;;;;;;;;6245045;22;20016;-77
2024/01/14 10:21:53;;;;;;;117.40;37.35;;;;;;;;;;6245859;22;20028;-78
2024/01/14 10:24:39;;;;;;;109.95;36.40;;;;;;;;;;6245135;22;20322;-77
2024/01/14 10:27:06;;;;;;;111.85;38.67;;;;;;;;;;6245233;22;20020;-78
2024/01/14 10:29:33;;;;;;;117.85;37.45;;;;;;;;;;6245758;22;20078;-78
2024/01/14 10:32:00;;;;;;;110.07;36.60;;;;;;;;;;6245604;22;20062;-77
2024/01/14 10:34:28;;;;;;;127.97;37.25;;;;;;;;;;6245015;22;20070;-77
2024/01/14 10:37:00;;;;;;;121.03;37.33;;;;;;;;;;6245672;22;20014;-77
2024/01/14 10:39:31;;;;;;;125.15;37.28;;;;;;;;;;6245166;22;20070;-77
2024/01/14 10:41:58;;;;;;;133.77;37.17;;;;;;;;;;6245484;22;20095;-77
2024/01/14 10:44:25;;;;;;;131.40;36.50;;;;;;;;;;6244873;22;20327;-77
2024/01/14 10:46:53;;;;;;;131.20;37.38;;;;;;;;;;6245645;22;20018;-77
2024/01/14 10:49:26;;;;;;;154.27;38.83;;;;;;;;;;6245240;22;20036;-79
2024/01/14 10:52:10;;;;;;;124.70;35.58;;;;;;;;;;6245278;22;20380;-76
2024/01/14 10:54:49;;;;;;;130.02;37.58;;;;;;;;;;6245106;22;20044;-77
2024/01/14 10:57:25;;;;;;;134.20;36.13;;;;;;;;;;6244947;22;20020;-76
2024/01/14 11:00:14;;;;;;;129.48;38.22;;;;;;;;;;6245232;22;20087;-77
2024/01/14 11:02:42;;;;;;;139.05;37.25;;;;;;;;;;6245341;22;20024;-77
2024/01/14 11:05:09;;;;;;;128.38;37.53;;;;;;;;;;6246394;22;20040;-78
2024/01/14 11:07:36;;;;;;;130.57;37.40;;;;;;;;;;6247127;22;20047;-78
2024/01/14 11:10:04;;;;;;;112.80;33.40;;;;;;;;;;6246735;22;20365;-76
2024/01/14 11:12:48;;;;;;;123.60;35.00;;;;;;;;;;6246650;22;20019;-76
2024/01/14 11:16:06;;;;;;;121.47;36.60;;;;;;;;;;6245292;22;20012;-76
2024/01/14 11:18:42;;;;;;;107.63;32.13;;;;;;;;;;6123060;23;20025;-77
2024/01/14 11:21:29;;;;;;;89.57;29.75;;;;;;;;;;6122754;23;20040;-78
2024/01/14 11:24:20;;;;;;;96.70;29.27;;;;;;;;;;6124238;23;20078;-78
2024/01/14 11:26:47;;;;;;;95.57;30.60;;;;;;;;;;6124842;23;20025;-77
2024/01/14 11:29:13;;;;;;;96.25;30.58;;;;;;;;;;6124206;23;20025;-78
2024/01/14 11:32:11;;;;;;;104.35;30.45;;;;;;;;;;6124635;23;20022;-77
2024/01/14 11:34:47;;;;;;;102.38;32.20;;;;;;;;;;6118585;23;20032;-77
2024/01/14 11:37:43;;;;;;;101.68;30.48;;;;;;;;;;6124273;23;20079;-78
2024/01/14 11:40:15;;;;;;;95.15;30.25;;;;;;;;;;6124150;23;20077;-78
2024/01/14 11:42:50;;;;;;;109.60;30.88;;;;;;;;;;6124718;23;20447;-77
2024/01/14 11:45:23;;;;;;;116.35;31.27;;;;;;;;;;6124034;23;20452;-77
2024/01/14 11:47:54;;;;;;;115.07;31.73;;;;;;;;;;6124651;23;20415;-77
2024/01/14 11:50:24;;;;;;;118.72;33.20;;;;;;;;;;6123993;23;20467;-77
2024/01/14 11:52:53;;;;;;;117.38;32.78;;;;;;;;;;6131564;23;20021;-77
2024/01/14 11:55:32;;;;;;;;;;;;;;;;;;6247041;22;20012;-78
2024/01/14 11:58:09;;;;;;;121.40;32.17;;;;;;;;;;6246815;22;19919;-77
2024/01/14 12:00:40;;;;;;;126.63;33.22;;;;;;;;;;6246580;22;20024;-78
2024/01/14 12:03:15;;;;;;;136.00;33.95;;;;;;;;;;6246424;22;20020;-77
2024/01/14 12:05:44;;;;;;;138.27;38.08;;;;;;;;;;6247060;22;20008;-79
2024/01/14 12:08:12;;;;;;;130.20;36.58;;;;;;;;;;6246557;22;20055;-77
2024/01/14 12:10:40;;;;;;;124.50;34.38;;;;;;;;;;6246892;22;20016;-79
2024/01/14 12:13:07;;;;;;;129.75;33.67;;;;;;;;;;6246301;22;20016;-78
2024/01/14 12:15:35;;;;;;;129.38;36.78;;;;;;;;;;6247029;22;20012;-78
2024/01/14 12:18:05;;;;;;;127.75;38.30;;;;;;;;;;6246483;22;20090;-78
2024/01/14 12:20:33;;;;;;;127.22;37.17;;;;;;;;;;6247093;22;20024;-78
2024/01/14 12:23:04;;;;;;;150.32;41.30;;;;;;;;;;6246995;22;20016;-77
2024/01/14 12:25:33;;;;;;;143.45;39.75;;;;;;;;;;6246553;22;20115;-78
2024/01/14 12:28:00;;;;;;;137.55;39.63;;;;;;;;;;6247159;22;20020;-77
2024/01/14 12:30:36;;;;;;;148.82;39.78;;;;;;;;;;6246693;22;20016;-77
2024/01/14 12:33:08;;;;;;;157.40;42.28;;;;;;;;;;6246763;22;20016;-76
2024/01/14 12:35:36;;;;;;;145.85;41.15;;;;;;;;;;6247824;22;20020;-77
2024/01/14 12:38:06;;;;;;;161.82;43.50;;;;;;;;;;6247561;22;20020;-78
2024/01/14 12:40:35;;;;;;;157.93;41.38;;;;;;;;;;6248054;22;20028;-76
2024/01/14 12:43:04;;;;;;;156.32;44.67;;;;;;;;;;6251247;22;20016;-76
2024/01/14 12:45:31;;;;;;;161.50;43.60;;;;;;;;;;6252463;22;20019;-77
2024/01/14 12:48:00;;;;;;;178.25;46.97;;;;;;;;;;6249941;22;20016;-76
2024/01/14 12:50:28;;;;;;;165.55;48.85;;;;;;;;;;6248442;22;20287;-78
2024/01/14 12:53:07;;;;;;;161.75;44.47;;;;;;;;;;6247463;22;20507;-77
2024/01/14 12:55:34;;;;;;;173.77;47.58;;;;;;;;;;6247069;22;20020;-77
2024/01/14 12:58:01;;;;;;;181.60;47.45;;;;;;;;;;6246973;22;20013;-77
2024/01/14 13:00:31;;;;;;;201.55;49.83;;;;;;;;;;6245815;22;20299;-78
2024/01/14 13:02:59;;;;;;;203.70;53.17;;;;;;;;;;6246214;22;20020;-79
2024/01/14 13:05:26;;;;;;;192.15;49.47;;;;;;;;;;6245668;22;20016;-78
2024/01/14 13:07:53;;;;;;;190.73;48.95;;;;;;;;;;6246463;22;20067;-77
2024/01/14 13:10:20;;;;;;;180.73;48.20;;;;;;;;;;6245605;22;20024;-79
2024/01/14 13:12:47;;;;;;;202.70;48.58;;;;;;;;;;6246409;22;20012;-78
2024/01/14 13:15:14;;;;;;;217.60;49.50;;;;;;;;;;6245747;22;20023;-79
2024/01/14 13:17:41;;;;;;;208.55;46.50;;;;;;;;;;6245912;22;20020;-78
2024/01/14 13:20:08;;;;;;;230.65;49.55;;;;;;;;;;6245630;22;20012;-78
2024/01/14 13:22:36;;;;;;;198.00;46.70;;;;;;;;;;6246145;22;20022;-78
2024/01/14 13:25:04;;;;;;;219.65;50.50;;;;;;;;;;6245975;22;20019;-77
2024/01/14 13:27:32;;;;;;;196.93;47.30;;;;;;;;;;6245785;22;20332;-76
2024/01/14 13:30:02;;;;;;;208.95;49.85;;;;;;;;;;6246082;22;20079;-78
2024/01/14 13:32:32;;;;;;;231.43;47.53;;;;;;;;;;6245908;22;20028;-78
2024/01/14 13:34:59;;;;;;;204.13;46.47;;;;;;;;;;6245874;22;20507;-78
2024/01/14 13:37:26;;;;;;;212.30;47.58;;;;;;;;;;6245529;22;20062;-77
2024/01/14 13:39:53;;;;;;;214.20;48.47;;;;;;;;;;6245916;22;20023;-79
2024/01/14 13:42:20;;;;;;;213.82;47.03;;;;;;;;;;6245374;22;20062;-78
2024/01/14 13:44:47;;;;;;;302.70;92.45;;;;;;;;;;6245418;22;20026;-78
2024/01/14 13:47:14;;;;;;;289.98;76.43;;;;;;;;;;6245213;22;20024;-79
2024/01/14 13:49:41;;;;;;;261.58;57.25;;;;;;;;;;6246253;22;20016;-79
2024/01/14 13:52:08;;;;;;;214.07;49.05;;;;;;;;;;6245680;22;20070;-78
2024/01/14 13:54:35;;;;;;;266.92;60.00;;;;;;;;;;6248286;22;20372;-79
2024/01/14 13:57:02;;;;;;;246.10;54.28;;;;;;;;;;6248676;22;20012;-78
2024/01/14 13:59:29;;;;;;;245.57;57.92;;;;;;;;;;6247641;22;20080;-77
2024/01/14 14:01:56;;;;;;;227.45;50.95;;;;;;;;;;6246471;22;20329;-77
2024/01/14 14:04:23;;;;;;;242.48;53.35;;;;;;;;;;6245339;22;20012;-77
2024/01/14 14:06:53;;;;;;;242.65;53.75;;;;;;;;;;6245761;22;20295;-77
2024/01/14 14:09:20;;;;;;;224.88;48.33;;;;;;;;;;6245253;22;20087;-77
2024/01/14 14:11:47;;;;;;;204.68;48.90;;;;;;;;;;6244245;23;20016;-79
2024/01/14 14:14:14;;;;;;;205.52;49.92;;;;;;;;;;6245357;22;20441;-79
2024/01/14 14:16:41;;;;;;;282.35;55.00;;;;;;;;;;6245984;22;20057;-78
2024/01/14 14:19:10;;;;;;;218.63;53.13;;;;;;;;;;6245239;22;20039;-77
2024/01/14 14:21:40;;;;;;;258.48;53.88;;;;;;;;;;6245766;22;20020;-79